sensor_id;sensor_type;location;lat;lon;timestamp;P1;durP1;ratioP1;P2;durP2;ratioP2
64894;SDS011;51588;53.702;10.208;2023-03-13T00:01:24;5.97;;;2.90;;
64894;SDS011;51588;53.702;10.208;2023-03-13T00:03:51;7.40;;;3.23;;
64894;SDS011;51588;53.702;10.208;2023-03-13T00:06:21;5.93;;;3.40;;
64894;SDS011;51588;53.702;10.208;2023-03-13T00:08:48;5.20;;;3.33;;
64894;SDS011;51588;53.702;10.208;2023-03-13T00:11:14;6.30;;;3.10;;
64894;SDS011;51588;53.702;10.208;2023-03-13T00:13:41;7.33;;;3.00;;
64894;SDS011;51588;53.702;10.208;2023-03-13T00:16:08;6.70;;;3.10;;
64894;SDS011;51588;53.702;10.208;2023-03-13T00:18:34;9.30;;;3.40;;
64894;SDS011;51588;53.702;10.208;2023-03-13T00:21:01;7.50;;;3.03;;
64894;SDS011;51588;53.702;10.208;2023-03-13T00:23:32;6.40;;;3.20;;
64894;SDS011;51588;53.702;10.208;2023-03-13T00:26:03;5.80;;;3.20;;
64894;SDS011;51588;53.702;10.208;2023-03-13T00:28:31;5.53;;;2.47;;
64894;SDS011;51588;53.702;10.208;2023-03-13T00:31:00;5.40;;;3.07;;
64894;SDS011;51588;53.702;10.208;2023-03-13T00:33:27;7.00;;;3.50;;
64894;SDS011;51588;53.702;10.208;2023-03-13T00:35:56;6.33;;;3.13;;
64894;SDS011;51588;53.702;10.208;2023-03-13T00:38:23;7.60;;;3.33;;
64894;SDS011;51588;53.702;10.208;2023-03-13T00:40:58;7.10;;;3.13;;
64894;SDS011;51588;53.702;10.208;2023-03-13T00:43:24;5.70;;;3.03;;
64894;SDS011;51588;53.702;10.208;2023-03-13T00:45:51;4.90;;;2.90;;
64894;SDS011;51588;53.702;10.208;2023-03-13T00:48:17;5.30;;;3.43;;
64894;SDS011;51588;53.702;10.208;2023-03-13T00:50:43;5.97;;;3.10;;
64894;SDS011;51588;53.702;10.208;2023-03-13T00:53:12;6.70;;;3.10;;
64894;SDS011;51588;53.702;10.208;2023-03-13T00:55:38;6.73;;;3.20;;
64894;SDS011;51588;53.702;10.208;2023-03-13T00:58:06;4.57;;;3.00;;
64894;SDS011;51588;53.702;10.208;2023-03-13T01:00:32;5.10;;;2.83;;
64894;SDS011;51588;53.702;10.208;2023-03-13T01:02:59;5.80;;;2.93;;
64894;SDS011;51588;53.702;10.208;2023-03-13T01:05:27;6.07;;;2.93;;
64894;SDS011;51588;53.702;10.208;2023-03-13T01:07:56;5.20;;;2.93;;
64894;SDS011;51588;53.702;10.208;2023-03-13T01:10:23;7.03;;;3.07;;
64894;SDS011;51588;53.702;10.208;2023-03-13T01:12:49;8.20;;;3.40;;
64894;SDS011;51588;53.702;10.208;2023-03-13T01:15:17;7.80;;;3.20;;
64894;SDS011;51588;53.702;10.208;2023-03-13T01:17:44;5.13;;;2.57;;
64894;SDS011;51588;53.702;10.208;2023-03-13T01:20:10;7.03;;;3.13;;
64894;SDS011;51588;53.702;10.208;2023-03-13T01:22:37;5.87;;;2.90;;
64894;SDS011;51588;53.702;10.208;2023-03-13T01:25:04;5.43;;;2.83;;
64894;SDS011;51588;53.702;10.208;2023-03-13T01:27:30;4.97;;;2.87;;
64894;SDS011;51588;53.702;10.208;2023-03-13T01:29:57;5.30;;;3.40;;
64894;SDS011;51588;53.702;10.208;2023-03-13T01:32:24;4.67;;;2.73;;
64894;SDS011;51588;53.702;10.208;2023-03-13T01:34:51;6.07;;;2.73;;
64894;SDS011;51588;53.702;10.208;2023-03-13T01:37:17;7.93;;;2.87;;
64894;SDS011;51588;53.702;10.208;2023-03-13T01:39:43;4.60;;;2.60;;
64894;SDS011;51588;53.702;10.208;2023-03-13T01:42:13;7.90;;;3.03;;
64894;SDS011;51588;53.702;10.208;2023-03-13T01:44:48;8.50;;;2.77;;
64894;SDS011;51588;53.702;10.208;2023-03-13T01:47:14;4.93;;;2.80;;
64894;SDS011;51588;53.702;10.208;2023-03-13T01:49:42;4.70;;;2.60;;
64894;SDS011;51588;53.702;10.208;2023-03-13T01:52:10;5.27;;;3.00;;
64894;SDS011;51588;53.702;10.208;2023-03-13T01:54:38;8.97;;;3.00;;
64894;SDS011;51588;53.702;10.208;2023-03-13T01:57:07;5.23;;;2.90;;
64894;SDS011;51588;53.702;10.208;2023-03-13T01:59:37;4.60;;;2.47;;
64894;SDS011;51588;53.702;10.208;2023-03-13T02:02:05;4.63;;;2.53;;
64894;SDS011;51588;53.702;10.208;2023-03-13T02:04:33;6.30;;;3.10;;
64894;SDS011;51588;53.702;10.208;2023-03-13T02:07:06;5.60;;;2.87;;
64894;SDS011;51588;53.702;10.208;2023-03-13T02:09:34;5.73;;;3.20;;
64894;SDS011;51588;53.702;10.208;2023-03-13T02:12:02;4.27;;;2.53;;
64894;SDS011;51588;53.702;10.208;2023-03-13T02:14:29;6.73;;;3.17;;
64894;SDS011;51588;53.702;10.208;2023-03-13T02:17:03;5.73;;;2.80;;
64894;SDS011;51588;53.702;10.208;2023-03-13T02:19:34;5.87;;;2.53;;
64894;SDS011;51588;53.702;10.208;2023-03-13T02:22:06;7.60;;;3.43;;
64894;SDS011;51588;53.702;10.208;2023-03-13T02:24:34;8.03;;;2.80;;
64894;SDS011;51588;53.702;10.208;2023-03-13T02:27:04;8.80;;;3.40;;
64894;SDS011;51588;53.702;10.208;2023-03-13T02:29:30;5.53;;;2.70;;
64894;SDS011;51588;53.702;10.208;2023-03-13T02:31:59;5.43;;;2.53;;
64894;SDS011;51588;53.702;10.208;2023-03-13T02:34:27;6.27;;;3.17;;
64894;SDS011;51588;53.702;10.208;2023-03-13T02:36:58;4.63;;;2.73;;
64894;SDS011;51588;53.702;10.208;2023-03-13T02:39:25;6.13;;;2.90;;
64894;SDS011;51588;53.702;10.208;2023-03-13T02:41:52;6.90;;;3.27;;
64894;SDS011;51588;53.702;10.208;2023-03-13T02:44:20;5.07;;;2.80;;
64894;SDS011;51588;53.702;10.208;2023-03-13T02:46:47;6.80;;;2.93;;
64894;SDS011;51588;53.702;10.208;2023-03-13T02:49:18;4.33;;;2.50;;
64894;SDS011;51588;53.702;10.208;2023-03-13T02:51:45;5.77;;;2.97;;
64894;SDS011;51588;53.702;10.208;2023-03-13T02:54:13;7.13;;;3.43;;
64894;SDS011;51588;53.702;10.208;2023-03-13T02:56:42;7.23;;;2.80;;
64894;SDS011;51588;53.702;10.208;2023-03-13T02:59:08;9.57;;;3.07;;
64894;SDS011;51588;53.702;10.208;2023-03-13T03:01:39;6.13;;;3.00;;
64894;SDS011;51588;53.702;10.208;2023-03-13T03:04:06;7.23;;;2.73;;
64894;SDS011;51588;53.702;10.208;2023-03-13T03:06:32;7.13;;;3.27;;
64894;SDS011;51588;53.702;10.208;2023-03-13T03:08:58;6.30;;;2.60;;
64894;SDS011;51588;53.702;10.208;2023-03-13T03:11:25;6.17;;;2.60;;
64894;SDS011;51588;53.702;10.208;2023-03-13T03:13:51;6.50;;;2.80;;
64894;SDS011;51588;53.702;10.208;2023-03-13T03:16:18;6.07;;;3.30;;
64894;SDS011;51588;53.702;10.208;2023-03-13T03:18:46;6.83;;;3.20;;
64894;SDS011;51588;53.702;10.208;2023-03-13T03:21:12;6.20;;;2.90;;
64894;SDS011;51588;53.702;10.208;2023-03-13T03:23:38;7.03;;;3.00;;
64894;SDS011;51588;53.702;10.208;2023-03-13T03:26:05;7.30;;;2.97;;
64894;SDS011;51588;53.702;10.208;2023-03-13T03:28:32;10.20;;;2.90;;
64894;SDS011;51588;53.702;10.208;2023-03-13T03:31:02;7.73;;;3.27;;
64894;SDS011;51588;53.702;10.208;2023-03-13T03:33:28;4.97;;;2.63;;
64894;SDS011;51588;53.702;10.208;2023-03-13T03:35:59;5.27;;;2.97;;
64894;SDS011;51588;53.702;10.208;2023-03-13T03:38:25;6.87;;;2.90;;
64894;SDS011;51588;53.702;10.208;2023-03-13T03:40:52;6.40;;;2.73;;
64894;SDS011;51588;53.702;10.208;2023-03-13T03:43:19;6.23;;;2.70;;
64894;SDS011;51588;53.702;10.208;2023-03-13T03:45:48;6.60;;;3.20;;
64894;SDS011;51588;53.702;10.208;2023-03-13T03:48:15;6.53;;;3.00;;
64894;SDS011;51588;53.702;10.208;2023-03-13T03:50:47;6.00;;;2.70;;
64894;SDS011;51588;53.702;10.208;2023-03-13T03:53:15;6.17;;;3.27;;
64894;SDS011;51588;53.702;10.208;2023-03-13T03:55:47;6.50;;;2.87;;
64894;SDS011;51588;53.702;10.208;2023-03-13T03:58:14;6.20;;;2.60;;
64894;SDS011;51588;53.702;10.208;2023-03-13T04:00:41;10.27;;;3.50;;
64894;SDS011;51588;53.702;10.208;2023-03-13T04:03:11;4.93;;;2.70;;
64894;SDS011;51588;53.702;10.208;2023-03-13T04:05:37;7.20;;;3.17;;
64894;SDS011;51588;53.702;10.208;2023-03-13T04:08:04;7.10;;;2.67;;
64894;SDS011;51588;53.702;10.208;2023-03-13T04:10:32;5.50;;;2.80;;
64894;SDS011;51588;53.702;10.208;2023-03-13T04:12:58;6.33;;;2.67;;
64894;SDS011;51588;53.702;10.208;2023-03-13T04:15:25;4.77;;;2.70;;
64894;SDS011;51588;53.702;10.208;2023-03-13T04:17:51;6.70;;;3.30;;
64894;SDS011;51588;53.702;10.208;2023-03-13T04:20:18;6.17;;;2.50;;
64894;SDS011;51588;53.702;10.208;2023-03-13T04:22:44;5.17;;;2.87;;
64894;SDS011;51588;53.702;10.208;2023-03-13T04:25:15;4.83;;;2.43;;
64894;SDS011;51588;53.702;10.208;2023-03-13T04:27:45;6.53;;;2.50;;
64894;SDS011;51588;53.702;10.208;2023-03-13T04:30:12;6.13;;;2.93;;
64894;SDS011;51588;53.702;10.208;2023-03-13T04:32:38;5.80;;;2.80;;
64894;SDS011;51588;53.702;10.208;2023-03-13T04:35:05;6.70;;;3.20;;
64894;SDS011;51588;53.702;10.208;2023-03-13T04:37:31;5.43;;;2.40;;
64894;SDS011;51588;53.702;10.208;2023-03-13T04:40:06;7.80;;;2.70;;
64894;SDS011;51588;53.702;10.208;2023-03-13T04:42:33;5.70;;;2.73;;
64894;SDS011;51588;53.702;10.208;2023-03-13T04:45:04;5.90;;;2.67;;
64894;SDS011;51588;53.702;10.208;2023-03-13T04:47:30;5.73;;;2.80;;
64894;SDS011;51588;53.702;10.208;2023-03-13T04:49:57;5.90;;;2.73;;
64894;SDS011;51588;53.702;10.208;2023-03-13T04:52:23;5.63;;;2.60;;
64894;SDS011;51588;53.702;10.208;2023-03-13T04:54:49;5.27;;;2.60;;
64894;SDS011;51588;53.702;10.208;2023-03-13T04:57:16;7.40;;;2.90;;
64894;SDS011;51588;53.702;10.208;2023-03-13T04:59:42;6.30;;;2.67;;
64894;SDS011;51588;53.702;10.208;2023-03-13T05:02:13;5.37;;;2.80;;
64894;SDS011;51588;53.702;10.208;2023-03-13T05:04:39;6.47;;;2.73;;
64894;SDS011;51588;53.702;10.208;2023-03-13T05:07:06;7.70;;;3.03;;
64894;SDS011;51588;53.702;10.208;2023-03-13T05:09:32;6.30;;;2.93;;
64894;SDS011;51588;53.702;10.208;2023-03-13T05:11:58;4.00;;;2.53;;
64894;SDS011;51588;53.702;10.208;2023-03-13T05:14:25;5.67;;;2.50;;
64894;SDS011;51588;53.702;10.208;2023-03-13T05:16:51;7.00;;;2.50;;
64894;SDS011;51588;53.702;10.208;2023-03-13T05:19:19;7.43;;;2.63;;
64894;SDS011;51588;53.702;10.208;2023-03-13T05:21:45;7.97;;;2.67;;
64894;SDS011;51588;53.702;10.208;2023-03-13T05:24:12;4.70;;;2.47;;
64894;SDS011;51588;53.702;10.208;2023-03-13T05:26:38;5.10;;;2.57;;
64894;SDS011;51588;53.702;10.208;2023-03-13T05:29:04;5.47;;;2.27;;
64894;SDS011;51588;53.702;10.208;2023-03-13T05:31:31;6.20;;;2.37;;
64894;SDS011;51588;53.702;10.208;2023-03-13T05:33:57;5.80;;;2.57;;
64894;SDS011;51588;53.702;10.208;2023-03-13T05:36:25;5.60;;;2.43;;
64894;SDS011;51588;53.702;10.208;2023-03-13T05:38:51;5.23;;;2.97;;
64894;SDS011;51588;53.702;10.208;2023-03-13T05:41:18;5.87;;;2.43;;
64894;SDS011;51588;53.702;10.208;2023-03-13T05:43:44;5.30;;;2.53;;
64894;SDS011;51588;53.702;10.208;2023-03-13T05:46:13;3.97;;;2.13;;
64894;SDS011;51588;53.702;10.208;2023-03-13T05:48:40;6.13;;;2.73;;
64894;SDS011;51588;53.702;10.208;2023-03-13T05:51:13;5.37;;;2.80;;
64894;SDS011;51588;53.702;10.208;2023-03-13T05:53:51;5.80;;;2.63;;
64894;SDS011;51588;53.702;10.208;2023-03-13T05:56:18;6.00;;;2.50;;
64894;SDS011;51588;53.702;10.208;2023-03-13T05:58:44;3.73;;;2.20;;
64894;SDS011;51588;53.702;10.208;2023-03-13T06:01:14;5.17;;;2.40;;
64894;SDS011;51588;53.702;10.208;2023-03-13T06:03:42;3.90;;;2.03;;
64894;SDS011;51588;53.702;10.208;2023-03-13T06:06:09;4.60;;;2.50;;
64894;SDS011;51588;53.702;10.208;2023-03-13T06:08:35;3.90;;;2.00;;
64894;SDS011;51588;53.702;10.208;2023-03-13T06:11:03;3.43;;;1.93;;
64894;SDS011;51588;53.702;10.208;2023-03-13T06:13:29;5.80;;;2.27;;
64894;SDS011;51588;53.702;10.208;2023-03-13T06:15:56;5.93;;;2.47;;
64894;SDS011;51588;53.702;10.208;2023-03-13T06:18:23;4.43;;;2.20;;
64894;SDS011;51588;53.702;10.208;2023-03-13T06:20:54;3.70;;;2.03;;
64894;SDS011;51588;53.702;10.208;2023-03-13T06:23:21;5.00;;;2.40;;
64894;SDS011;51588;53.702;10.208;2023-03-13T06:25:47;4.10;;;2.20;;
64894;SDS011;51588;53.702;10.208;2023-03-13T06:28:15;4.73;;;2.13;;
64894;SDS011;51588;53.702;10.208;2023-03-13T06:30:41;3.20;;;1.93;;
64894;SDS011;51588;53.702;10.208;2023-03-13T06:33:08;4.73;;;2.23;;
64894;SDS011;51588;53.702;10.208;2023-03-13T06:35:34;5.37;;;2.20;;
64894;SDS011;51588;53.702;10.208;2023-03-13T06:38:00;4.13;;;2.03;;
64894;SDS011;51588;53.702;10.208;2023-03-13T06:40:27;5.40;;;2.40;;
64894;SDS011;51588;53.702;10.208;2023-03-13T06:42:59;6.50;;;2.27;;
64894;SDS011;51588;53.702;10.208;2023-03-13T06:45:27;5.23;;;2.40;;
64894;SDS011;51588;53.702;10.208;2023-03-13T06:47:53;8.10;;;3.17;;
64894;SDS011;51588;53.702;10.208;2023-03-13T06:50:20;11.43;;;2.80;;
64894;SDS011;51588;53.702;10.208;2023-03-13T06:52:49;8.10;;;2.43;;
64894;SDS011;51588;53.702;10.208;2023-03-13T06:55:15;11.73;;;2.80;;
64894;SDS011;51588;53.702;10.208;2023-03-13T06:57:48;12.07;;;2.80;;
64894;SDS011;51588;53.702;10.208;2023-03-13T07:00:14;14.27;;;3.33;;
64894;SDS011;51588;53.702;10.208;2023-03-13T07:02:42;8.87;;;2.70;;
64894;SDS011;51588;53.702;10.208;2023-03-13T07:05:09;12.07;;;2.37;;
64894;SDS011;51588;53.702;10.208;2023-03-13T07:07:35;9.27;;;2.30;;
64894;SDS011;51588;53.702;10.208;2023-03-13T07:10:02;11.93;;;2.73;;
64894;SDS011;51588;53.702;10.208;2023-03-13T07:12:28;18.37;;;2.33;;
64894;SDS011;51588;53.702;10.208;2023-03-13T07:15:02;10.00;;;3.03;;
64894;SDS011;51588;53.702;10.208;2023-03-13T07:17:29;4.73;;;2.17;;
64894;SDS011;51588;53.702;10.208;2023-03-13T07:19:59;6.17;;;2.37;;
64894;SDS011;51588;53.702;10.208;2023-03-13T07:22:25;5.43;;;2.13;;
64894;SDS011;51588;53.702;10.208;2023-03-13T07:24:51;6.00;;;2.00;;
64894;SDS011;51588;53.702;10.208;2023-03-13T07:27:18;7.43;;;2.13;;
64894;SDS011;51588;53.702;10.208;2023-03-13T07:29:46;5.37;;;2.57;;
64894;SDS011;51588;53.702;10.208;2023-03-13T07:32:12;4.83;;;2.07;;
64894;SDS011;51588;53.702;10.208;2023-03-13T07:34:41;5.70;;;2.00;;
64894;SDS011;51588;53.702;10.208;2023-03-13T07:37:10;4.60;;;1.93;;
64894;SDS011;51588;53.702;10.208;2023-03-13T07:39:37;6.37;;;1.70;;
64894;SDS011;51588;53.702;10.208;2023-03-13T07:42:07;5.07;;;1.87;;
64894;SDS011;51588;53.702;10.208;2023-03-13T07:44:34;6.33;;;1.97;;
64894;SDS011;51588;53.702;10.208;2023-03-13T07:47:00;3.60;;;1.70;;
64894;SDS011;51588;53.702;10.208;2023-03-13T07:49:26;3.10;;;1.77;;
64894;SDS011;51588;53.702;10.208;2023-03-13T07:51:53;4.53;;;1.80;;
64894;SDS011;51588;53.702;10.208;2023-03-13T07:54:20;6.40;;;1.93;;
64894;SDS011;51588;53.702;10.208;2023-03-13T07:56:47;7.20;;;2.07;;
64894;SDS011;51588;53.702;10.208;2023-03-13T07:59:15;3.60;;;1.73;;
64894;SDS011;51588;53.702;10.208;2023-03-13T08:01:41;3.53;;;1.93;;
64894;SDS011;51588;53.702;10.208;2023-03-13T08:04:08;4.27;;;1.70;;
64894;SDS011;51588;53.702;10.208;2023-03-13T08:06:36;3.97;;;1.50;;
64894;SDS011;51588;53.702;10.208;2023-03-13T08:09:03;4.90;;;1.80;;
64894;SDS011;51588;53.702;10.208;2023-03-13T08:11:31;3.00;;;1.53;;
64894;SDS011;51588;53.702;10.208;2023-03-13T08:13:58;2.63;;;1.60;;
64894;SDS011;51588;53.702;10.208;2023-03-13T08:16:25;3.83;;;1.50;;
64894;SDS011;51588;53.702;10.208;2023-03-13T08:18:52;4.23;;;1.57;;
64894;SDS011;51588;53.702;10.208;2023-03-13T08:21:19;1.87;;;1.50;;
64894;SDS011;51588;53.702;10.208;2023-03-13T08:23:46;5.80;;;1.40;;
64894;SDS011;51588;53.702;10.208;2023-03-13T08:26:17;2.60;;;1.50;;
64894;SDS011;51588;53.702;10.208;2023-03-13T08:28:46;3.47;;;1.40;;
64894;SDS011;51588;53.702;10.208;2023-03-13T08:31:14;2.77;;;1.30;;
64894;SDS011;51588;53.702;10.208;2023-03-13T08:33:41;3.40;;;1.53;;
64894;SDS011;51588;53.702;10.208;2023-03-13T08:36:09;2.27;;;1.30;;
64894;SDS011;51588;53.702;10.208;2023-03-13T08:38:35;2.00;;;1.40;;
64894;SDS011;51588;53.702;10.208;2023-03-13T08:41:02;2.97;;;1.60;;
64894;SDS011;51588;53.702;10.208;2023-03-13T08:43:29;8.50;;;1.60;;
64894;SDS011;51588;53.702;10.208;2023-03-13T08:45:56;4.73;;;1.63;;
64894;SDS011;51588;53.702;10.208;2023-03-13T08:48:23;6.60;;;1.67;;
64894;SDS011;51588;53.702;10.208;2023-03-13T08:50:57;4.60;;;1.83;;
64894;SDS011;51588;53.702;10.208;2023-03-13T08:53:27;4.50;;;1.60;;
64894;SDS011;51588;53.702;10.208;2023-03-13T08:55:53;2.70;;;1.40;;
64894;SDS011;51588;53.702;10.208;2023-03-13T08:58:19;3.23;;;1.20;;
64894;SDS011;51588;53.702;10.208;2023-03-13T09:00:46;3.23;;;1.50;;
64894;SDS011;51588;53.702;10.208;2023-03-13T09:03:16;2.77;;;1.30;;
64894;SDS011;51588;53.702;10.208;2023-03-13T09:05:42;4.20;;;1.30;;
64894;SDS011;51588;53.702;10.208;2023-03-13T09:08:10;1.60;;;1.27;;
64894;SDS011;51588;53.702;10.208;2023-03-13T09:10:36;4.00;;;1.33;;
64894;SDS011;51588;53.702;10.208;2023-03-13T09:13:03;3.27;;;1.37;;
64894;SDS011;51588;53.702;10.208;2023-03-13T09:15:29;3.53;;;1.20;;
64894;SDS011;51588;53.702;10.208;2023-03-13T09:17:55;2.77;;;1.53;;
64894;SDS011;51588;53.702;10.208;2023-03-13T09:20:23;2.47;;;1.63;;
64894;SDS011;51588;53.702;10.208;2023-03-13T09:22:49;2.60;;;1.03;;
64894;SDS011;51588;53.702;10.208;2023-03-13T09:25:16;3.33;;;1.30;;
64894;SDS011;51588;53.702;10.208;2023-03-13T09:27:42;3.20;;;1.70;;
64894;SDS011;51588;53.702;10.208;2023-03-13T09:30:11;2.27;;;1.30;;
64894;SDS011;51588;53.702;10.208;2023-03-13T09:32:37;3.37;;;1.40;;
64894;SDS011;51588;53.702;10.208;2023-03-13T09:35:04;4.23;;;1.87;;
64894;SDS011;51588;53.702;10.208;2023-03-13T09:37:32;5.67;;;1.60;;
64894;SDS011;51588;53.702;10.208;2023-03-13T09:39:58;10.53;;;1.50;;
64894;SDS011;51588;53.702;10.208;2023-03-13T09:42:27;3.37;;;1.60;;
64894;SDS011;51588;53.702;10.208;2023-03-13T09:44:58;2.77;;;1.50;;
64894;SDS011;51588;53.702;10.208;2023-03-13T09:47:29;1.60;;;1.27;;
64894;SDS011;51588;53.702;10.208;2023-03-13T09:49:58;3.53;;;1.20;;
64894;SDS011;51588;53.702;10.208;2023-03-13T09:52:26;2.50;;;1.40;;
64894;SDS011;51588;53.702;10.208;2023-03-13T09:54:55;3.10;;;1.53;;
64894;SDS011;51588;53.702;10.208;2023-03-13T09:57:24;4.87;;;1.60;;
64894;SDS011;51588;53.702;10.208;2023-03-13T09:59:52;3.77;;;1.60;;
64894;SDS011;51588;53.702;10.208;2023-03-13T10:02:26;1.73;;;1.20;;
64894;SDS011;51588;53.702;10.208;2023-03-13T10:04:58;3.27;;;1.37;;
64894;SDS011;51588;53.702;10.208;2023-03-13T10:07:26;2.47;;;1.47;;
64894;SDS011;51588;53.702;10.208;2023-03-13T10:09:52;5.20;;;1.40;;
64894;SDS011;51588;53.702;10.208;2023-03-13T10:12:23;3.80;;;1.37;;
64894;SDS011;51588;53.702;10.208;2023-03-13T10:14:56;2.80;;;1.30;;
64894;SDS011;51588;53.702;10.208;2023-03-13T10:17:29;4.20;;;1.40;;
64894;SDS011;51588;53.702;10.208;2023-03-13T10:19:57;2.77;;;1.37;;
64894;SDS011;51588;53.702;10.208;2023-03-13T10:22:26;1.73;;;1.40;;
64894;SDS011;51588;53.702;10.208;2023-03-13T10:24:54;2.80;;;1.37;;
64894;SDS011;51588;53.702;10.208;2023-03-13T10:27:23;3.10;;;1.30;;
64894;SDS011;51588;53.702;10.208;2023-03-13T10:29:50;2.60;;;1.37;;
64894;SDS011;51588;53.702;10.208;2023-03-13T10:32:16;2.03;;;1.23;;
64894;SDS011;51588;53.702;10.208;2023-03-13T10:34:48;5.30;;;1.47;;
64894;SDS011;51588;53.702;10.208;2023-03-13T10:37:18;2.53;;;1.30;;
64894;SDS011;51588;53.702;10.208;2023-03-13T10:39:44;3.40;;;1.50;;
64894;SDS011;51588;53.702;10.208;2023-03-13T10:42:16;1.60;;;1.13;;
64894;SDS011;51588;53.702;10.208;2023-03-13T10:44:48;2.67;;;1.23;;
64894;SDS011;51588;53.702;10.208;2023-03-13T10:47:14;4.10;;;1.60;;
64894;SDS011;51588;53.702;10.208;2023-03-13T10:49:54;2.00;;;1.20;;
64894;SDS011;51588;53.702;10.208;2023-03-13T10:52:27;1.83;;;1.40;;
64894;SDS011;51588;53.702;10.208;2023-03-13T10:54:55;3.07;;;1.43;;
64894;SDS011;51588;53.702;10.208;2023-03-13T10:57:27;2.30;;;1.40;;
64894;SDS011;51588;53.702;10.208;2023-03-13T10:59:56;1.30;;;1.10;;
64894;SDS011;51588;53.702;10.208;2023-03-13T11:02:24;2.40;;;1.30;;
64894;SDS011;51588;53.702;10.208;2023-03-13T11:04:52;1.70;;;1.30;;
64894;SDS011;51588;53.702;10.208;2023-03-13T11:07:25;1.43;;;1.10;;
64894;SDS011;51588;53.702;10.208;2023-03-13T11:09:59;2.57;;;1.20;;
64894;SDS011;51588;53.702;10.208;2023-03-13T11:12:25;2.80;;;1.30;;
64894;SDS011;51588;53.702;10.208;2023-03-13T11:14:57;3.23;;;1.60;;
64894;SDS011;51588;53.702;10.208;2023-03-13T11:17:23;1.37;;;1.10;;
64894;SDS011;51588;53.702;10.208;2023-03-13T11:20:07;1.97;;;1.10;;
64894;SDS011;51588;53.702;10.208;2023-03-13T11:22:39;1.67;;;1.03;;
64894;SDS011;51588;53.702;10.208;2023-03-13T11:25:12;1.97;;;1.40;;
64894;SDS011;51588;53.702;10.208;2023-03-13T11:27:42;1.63;;;1.40;;
64894;SDS011;51588;53.702;10.208;2023-03-13T11:30:15;2.03;;;1.17;;
64894;SDS011;51588;53.702;10.208;2023-03-13T11:32:47;2.17;;;1.30;;
64894;SDS011;51588;53.702;10.208;2023-03-13T11:35:19;3.50;;;1.50;;
64894;SDS011;51588;53.702;10.208;2023-03-13T11:37:46;1.97;;;1.20;;
64894;SDS011;51588;53.702;10.208;2023-03-13T11:40:16;2.17;;;1.30;;
64894;SDS011;51588;53.702;10.208;2023-03-13T11:42:51;2.83;;;1.50;;
64894;SDS011;51588;53.702;10.208;2023-03-13T11:45:36;1.87;;;1.30;;
64894;SDS011;51588;53.702;10.208;2023-03-13T11:48:07;4.30;;;1.10;;
64894;SDS011;51588;53.702;10.208;2023-03-13T11:50:36;1.47;;;1.37;;
64894;SDS011;51588;53.702;10.208;2023-03-13T11:53:08;3.73;;;1.47;;
64894;SDS011;51588;53.702;10.208;2023-03-13T11:55:41;1.67;;;1.10;;
64894;SDS011;51588;53.702;10.208;2023-03-13T11:58:16;3.37;;;1.37;;
64894;SDS011;51588;53.702;10.208;2023-03-13T12:00:46;2.50;;;1.40;;
64894;SDS011;51588;53.702;10.208;2023-03-13T12:03:16;4.57;;;1.50;;
64894;SDS011;51588;53.702;10.208;2023-03-13T12:05:46;4.60;;;1.43;;
64894;SDS011;51588;53.702;10.208;2023-03-13T12:08:17;3.30;;;1.20;;
64894;SDS011;51588;53.702;10.208;2023-03-13T12:10:45;2.57;;;1.40;;
64894;SDS011;51588;53.702;10.208;2023-03-13T12:13:13;1.70;;;1.17;;
64894;SDS011;51588;53.702;10.208;2023-03-13T12:15:42;5.20;;;1.40;;
64894;SDS011;51588;53.702;10.208;2023-03-13T12:18:14;2.30;;;1.13;;
64894;SDS011;51588;53.702;10.208;2023-03-13T12:20:43;2.60;;;1.40;;
64894;SDS011;51588;53.702;10.208;2023-03-13T12:23:17;5.80;;;1.20;;
64894;SDS011;51588;53.702;10.208;2023-03-13T12:25:45;2.90;;;1.50;;
64894;SDS011;51588;53.702;10.208;2023-03-13T12:28:18;2.23;;;1.40;;
64894;SDS011;51588;53.702;10.208;2023-03-13T12:30:47;1.90;;;1.40;;
64894;SDS011;51588;53.702;10.208;2023-03-13T12:33:20;2.70;;;1.20;;
64894;SDS011;51588;53.702;10.208;2023-03-13T12:35:50;5.40;;;1.67;;
64894;SDS011;51588;53.702;10.208;2023-03-13T12:38:19;1.60;;;1.30;;
64894;SDS011;51588;53.702;10.208;2023-03-13T12:40:48;4.63;;;1.10;;
64894;SDS011;51588;53.702;10.208;2023-03-13T12:43:16;2.70;;;1.50;;
64894;SDS011;51588;53.702;10.208;2023-03-13T12:45:46;4.83;;;1.37;;
64894;SDS011;51588;53.702;10.208;2023-03-13T12:48:20;3.07;;;1.60;;
64894;SDS011;51588;53.702;10.208;2023-03-13T12:53:33;6.73;;;1.50;;
64894;SDS011;51588;53.702;10.208;2023-03-13T12:58:50;1.60;;;1.30;;
64894;SDS011;51588;53.702;10.208;2023-03-13T13:01:25;4.73;;;1.30;;
64894;SDS011;51588;53.702;10.208;2023-03-13T13:03:54;2.37;;;1.50;;
64894;SDS011;51588;53.702;10.208;2023-03-13T13:06:21;1.60;;;1.20;;
64894;SDS011;51588;53.702;10.208;2023-03-13T13:08:49;2.30;;;1.17;;
64894;SDS011;51588;53.702;10.208;2023-03-13T13:11:45;2.80;;;1.40;;
64894;SDS011;51588;53.702;10.208;2023-03-13T13:16:58;2.63;;;1.63;;
64894;SDS011;51588;53.702;10.208;2023-03-13T13:19:43;4.67;;;1.63;;
64894;SDS011;51588;53.702;10.208;2023-03-13T13:24:55;1.40;;;1.10;;
64894;SDS011;51588;53.702;10.208;2023-03-13T13:27:27;1.73;;;1.47;;
64894;SDS011;51588;53.702;10.208;2023-03-13T13:29:55;2.73;;;1.27;;
64894;SDS011;51588;53.702;10.208;2023-03-13T13:32:32;4.53;;;1.40;;
64894;SDS011;51588;53.702;10.208;2023-03-13T13:35:04;5.10;;;1.40;;
64894;SDS011;51588;53.702;10.208;2023-03-13T13:37:31;3.63;;;1.20;;
64894;SDS011;51588;53.702;10.208;2023-03-13T13:40:17;4.60;;;1.60;;
64894;SDS011;51588;53.702;10.208;2023-03-13T13:42:48;1.97;;;1.30;;
64894;SDS011;51588;53.702;10.208;2023-03-13T13:45:22;3.33;;;1.70;;
64894;SDS011;51588;53.702;10.208;2023-03-13T13:47:50;2.03;;;1.20;;
64894;SDS011;51588;53.702;10.208;2023-03-13T13:50:19;6.43;;;1.20;;
64894;SDS011;51588;53.702;10.208;2023-03-13T13:52:46;2.37;;;1.30;;
64894;SDS011;51588;53.702;10.208;2023-03-13T13:55:32;2.97;;;1.70;;
64894;SDS011;51588;53.702;10.208;2023-03-13T13:58:10;2.90;;;1.53;;
64894;SDS011;51588;53.702;10.208;2023-03-13T14:00:38;2.07;;;1.30;;
64894;SDS011;51588;53.702;10.208;2023-03-13T14:03:15;4.50;;;1.50;;
64894;SDS011;51588;53.702;10.208;2023-03-13T14:05:44;1.60;;;1.30;;
64894;SDS011;51588;53.702;10.208;2023-03-13T14:08:13;2.20;;;1.50;;
64894;SDS011;51588;53.702;10.208;2023-03-13T14:10:41;3.10;;;1.40;;
64894;SDS011;51588;53.702;10.208;2023-03-13T14:13:12;5.03;;;1.30;;
64894;SDS011;51588;53.702;10.208;2023-03-13T14:15:43;1.90;;;1.30;;
64894;SDS011;51588;53.702;10.208;2023-03-13T14:18:19;2.73;;;1.23;;
64894;SDS011;51588;53.702;10.208;2023-03-13T14:20:59;2.47;;;1.40;;
64894;SDS011;51588;53.702;10.208;2023-03-13T14:23:34;1.70;;;1.33;;
64894;SDS011;51588;53.702;10.208;2023-03-13T14:26:11;5.43;;;1.40;;
64894;SDS011;51588;53.702;10.208;2023-03-13T14:28:39;2.20;;;1.20;;
64894;SDS011;51588;53.702;10.208;2023-03-13T14:31:06;3.30;;;1.30;;
64894;SDS011;51588;53.702;10.208;2023-03-13T14:33:33;1.63;;;1.20;;
64894;SDS011;51588;53.702;10.208;2023-03-13T14:36:01;1.83;;;1.30;;
64894;SDS011;51588;53.702;10.208;2023-03-13T14:38:28;2.00;;;1.10;;
64894;SDS011;51588;53.702;10.208;2023-03-13T14:40:55;1.60;;;1.30;;
64894;SDS011;51588;53.702;10.208;2023-03-13T14:43:25;4.80;;;1.53;;
64894;SDS011;51588;53.702;10.208;2023-03-13T14:45:56;4.80;;;1.47;;
64894;SDS011;51588;53.702;10.208;2023-03-13T14:48:26;1.80;;;1.23;;
64894;SDS011;51588;53.702;10.208;2023-03-13T14:50:54;3.63;;;1.60;;
64894;SDS011;51588;53.702;10.208;2023-03-13T14:53:26;3.03;;;1.20;;